Catàleg de serveis del Meteocat
Campanya meteocatpedra

Dades de l'estació automàtica Pujalt

?
?
Resum diari
Dades diàries de l'estació meteorològica
Temperatura mitjana 5.3 °C
Temperatura màxima 8.6 °C 14:19 TU
Temperatura mínima 3.4 °C 3:00 TU
Humitat relativa mitjana 89%
Precipitació acumulada 0.0 mm
Ratxa màxima del vent (10 m) 27.7 km/h - 254º 15:24 TU
Irradiació solar global 5.2 MJ/m2

El tram horari està expressat en Temps Universal (TU). Cal sumar una hora en horari d'hivern i dues en horari d'estiu per passar a l'hora oficial.

Pujalt

Metadades estació meteorol´gica
Municipi Pujalt
Comarca Anoia
Altitud 747 m
Data alta 06.04.2018
Estat actual Operativa
Dades de període
Període
TU
TM
°C
TX
°C
TN
°C
HRM
%
PPT
mm
VVM (10 m)
km/h
DVM (10 m)
graus
VVX (10 m)
km/h
RS
W/m2
00:00 - 00:30 4.5 4.7 4.3 92 0.0 13.0 240 22.0 0
00:30 - 01:00 4.2 4.3 4.1 93 0.0 13.0 247 24.8 0
01:00 - 01:30 4.2 4.3 4.1 94 0.0 13.3 255 23.0 0
01:30 - 02:00 4.2 4.2 4.1 94 0.0 12.2 252 25.6 0
02:00 - 02:30 3.9 4.1 3.6 95 0.0 8.3 244 18.0 0
02:30 - 03:00 3.5 3.6 3.4 96 0.0 9.0 230 14.0 0
03:00 - 03:30 3.5 3.5 3.4 96 0.0 9.7 229 15.5 0
03:30 - 04:00 3.6 3.8 3.5 96 0.0 9.7 233 15.1 0
04:00 - 04:30 3.9 4.1 3.8 95 0.0 6.1 220 10.8 0
04:30 - 05:00 4.3 4.4 4.2 94 0.0 6.1 228 10.4 0
05:00 - 05:30 4.3 4.4 4.1 94 0.0 2.5 357 4.7 0
05:30 - 06:00 3.9 4.1 3.7 96 0.0 5.8 72 12.2 0
06:00 - 06:30 3.7 3.9 3.6 97 0.0 5.8 84 11.5 0
06:30 - 07:00 3.8 3.9 3.8 96 0.0 6.8 106 11.5 2
07:00 - 07:30 4.3 4.5 4.0 94 0.0 7.2 157 9.7 10
07:30 - 08:00 4.4 4.5 4.2 94 0.0 6.8 109 11.9 20
08:00 - 08:30 4.8 5.3 4.2 93 0.0 6.1 132 10.4 40
08:30 - 09:00 5.1 5.7 4.8 90 0.0 5.8 94 11.9 136
09:00 - 09:30 6.0 6.2 5.7 87 0.0 2.2 198 5.0 106
09:30 - 10:00 6.1 6.2 6.0 88 0.0 3.6 242 7.9 58
10:00 - 10:30 6.1 6.3 6.1 89 0.0 5.0 219 10.8 89
10:30 - 11:00 6.2 6.3 6.1 89 0.0 4.3 255 11.9 126
11:00 - 11:30 6.5 6.9 6.2 88 0.0 4.3 283 9.0 224
11:30 - 12:00 6.8 7.3 6.6 86 0.0 6.1 272 13.0 236
12:00 - 12:30 7.3 7.9 6.9 86 0.0 7.6 256 17.6 325
12:30 - 13:00 7.2 7.8 6.7 86 0.0 9.0 251 20.5 276
13:00 - 13:30 6.8 7.0 6.5 87 0.0 10.4 237 19.8 242
13:30 - 14:00 6.9 7.7 6.4 86 0.0 11.2 236 19.8 275
14:00 - 14:30 8.2 8.6 7.9 79 0.0 11.9 241 21.2 336
14:30 - 15:00 8.1 8.4 7.9 78 0.0 14.8 243 24.5 248
15:00 - 15:30 7.3 8.0 7.0 84 0.0 13.0 250 27.7 94
15:30 - 16:00 6.9 7.2 6.8 88 0.0 13.0 239 24.1 48
16:00 - 16:30 6.6 6.7 6.3 89 0.0 13.7 235 25.2 17
16:30 - 17:00 6.0 6.3 5.9 93 0.0 12.6 236 22.7 0
17:00 - 17:30 6.0 6.1 5.9 95 0.0 12.2 232 19.4 0
17:30 - 18:00 5.9 6.1 5.7 96 0.0 13.0 227 25.9 0
18:00 - 18:30 6.1 6.2 6.0 86 0.0 15.8 228 25.9 0
18:30 - 19:00 5.7 6.0 5.4 82 0.0 14.4 226 23.8 0
19:00 - 19:30 5.5 5.6 5.4 80 0.0 14.8 227 27.4 0
19:30 - 20:00 5.5 5.6 5.3 77 0.0 15.8 234 26.6 0
20:00 - 20:30 5.0 5.5 4.7 79 0.0 12.2 226 22.3 0
20:30 - 21:00 4.4 4.7 4.1 81 0.0 9.4 226 15.1 0
21:00 - 21:30 4.2 4.6 3.8 82 0.0 9.4 235 18.0 0
21:30 - 22:00 4.0 4.2 3.8 82 0.0 9.7 231 14.4 0
22:00 - 22:30 3.8 4.0 3.7 83 0.0 9.4 228 14.4 0
22:30 - 23:00 (s/d) (s/d) (s/d) (s/d) (s/d) (s/d) (s/d) (s/d) (s/d)

Les dades en taronja només han passat un control de qualitat automàtic. Resta pendent la seva validació definitiva.